sensor_id;sensor_type;location;lat;lon;timestamp;temperature;humidity
44305;DHT22;30019;50.576;8.568;2023-04-06T00:00:51;-0.40;99.90
44305;DHT22;30019;50.576;8.568;2023-04-06T00:03:18;-0.30;99.90
44305;DHT22;30019;50.576;8.568;2023-04-06T00:05:43;-0.30;99.90
44305;DHT22;30019;50.576;8.568;2023-04-06T00:08:09;-0.40;99.90
44305;DHT22;30019;50.576;8.568;2023-04-06T00:10:35;-0.40;99.90
44305;DHT22;30019;50.576;8.568;2023-04-06T00:13:00;-0.40;99.90
44305;DHT22;30019;50.576;8.568;2023-04-06T00:15:26;-0.50;99.90
44305;DHT22;30019;50.576;8.568;2023-04-06T00:17:52;-0.60;99.90
44305;DHT22;30019;50.576;8.568;2023-04-06T00:20:18;-0.60;99.90
44305;DHT22;30019;50.576;8.568;2023-04-06T00:22:44;-0.70;99.90
44305;DHT22;30019;50.576;8.568;2023-04-06T00:25:11;-0.60;99.90
44305;DHT22;30019;50.576;8.568;2023-04-06T00:27:37;-0.60;99.90
44305;DHT22;30019;50.576;8.568;2023-04-06T00:30:06;-0.60;99.90
44305;DHT22;30019;50.576;8.568;2023-04-06T00:32:32;-0.60;99.90
44305;DHT22;30019;50.576;8.568;2023-04-06T00:34:58;-0.60;99.90
44305;DHT22;30019;50.576;8.568;2023-04-06T00:37:24;-0.70;99.90
44305;DHT22;30019;50.576;8.568;2023-04-06T00:39:50;-0.70;99.90
44305;DHT22;30019;50.576;8.568;2023-04-06T00:42:18;-0.70;99.90
44305;DHT22;30019;50.576;8.568;2023-04-06T00:44:51;-0.80;99.90
44305;DHT22;30019;50.576;8.568;2023-04-06T00:47:17;-0.80;99.90
44305;DHT22;30019;50.576;8.568;2023-04-06T00:49:42;-0.90;99.90
44305;DHT22;30019;50.576;8.568;2023-04-06T00:52:08;-0.90;99.90
44305;DHT22;30019;50.576;8.568;2023-04-06T00:54:34;-0.90;99.90
44305;DHT22;30019;50.576;8.568;2023-04-06T00:57:00;-0.90;99.90
44305;DHT22;30019;50.576;8.568;2023-04-06T00:59:27;-1.00;99.90
44305;DHT22;30019;50.576;8.568;2023-04-06T01:01:53;-1.10;99.90
44305;DHT22;30019;50.576;8.568;2023-04-06T01:04:18;-1.10;99.90
44305;DHT22;30019;50.576;8.568;2023-04-06T01:06:44;-1.10;99.90
44305;DHT22;30019;50.576;8.568;2023-04-06T01:09:10;-1.10;99.90
44305;DHT22;30019;50.576;8.568;2023-04-06T01:11:36;-1.20;99.90
44305;DHT22;30019;50.576;8.568;2023-04-06T01:14:02;-1.10;99.90
44305;DHT22;30019;50.576;8.568;2023-04-06T01:16:28;-1.00;99.90
44305;DHT22;30019;50.576;8.568;2023-04-06T01:18:54;-1.00;99.90
44305;DHT22;30019;50.576;8.568;2023-04-06T01:21:19;-1.00;99.90
44305;DHT22;30019;50.576;8.568;2023-04-06T01:23:45;-1.00;99.90
44305;DHT22;30019;50.576;8.568;2023-04-06T01:26:12;-1.10;99.90
44305;DHT22;30019;50.576;8.568;2023-04-06T01:28:37;-1.10;99.90
44305;DHT22;30019;50.576;8.568;2023-04-06T01:31:04;-1.20;99.90
44305;DHT22;30019;50.576;8.568;2023-04-06T01:33:30;-1.20;99.90
44305;DHT22;30019;50.576;8.568;2023-04-06T01:35:56;-1.20;99.90
44305;DHT22;30019;50.576;8.568;2023-04-06T01:38:21;-1.30;99.90
44305;DHT22;30019;50.576;8.568;2023-04-06T01:40:47;-1.40;99.90
44305;DHT22;30019;50.576;8.568;2023-04-06T01:43:13;-1.40;99.90
44305;DHT22;30019;50.576;8.568;2023-04-06T01:45:38;-1.40;99.90
44305;DHT22;30019;50.576;8.568;2023-04-06T01:48:04;-1.40;99.90
44305;DHT22;30019;50.576;8.568;2023-04-06T01:50:30;-1.40;99.90
44305;DHT22;30019;50.576;8.568;2023-04-06T01:52:55;-1.50;99.90
44305;DHT22;30019;50.576;8.568;2023-04-06T01:55:21;-1.50;99.90
44305;DHT22;30019;50.576;8.568;2023-04-06T01:57:46;-1.50;99.90
44305;DHT22;30019;50.576;8.568;2023-04-06T02:00:12;-1.50;99.90
44305;DHT22;30019;50.576;8.568;2023-04-06T02:02:38;-1.50;99.90
44305;DHT22;30019;50.576;8.568;2023-04-06T02:05:04;-1.60;99.90
44305;DHT22;30019;50.576;8.568;2023-04-06T02:07:30;-1.60;99.90
44305;DHT22;30019;50.576;8.568;2023-04-06T02:09:55;-1.60;99.90
44305;DHT22;30019;50.576;8.568;2023-04-06T02:12:21;-1.60;99.90
44305;DHT22;30019;50.576;8.568;2023-04-06T02:14:47;-1.70;99.90
44305;DHT22;30019;50.576;8.568;2023-04-06T02:17:12;-1.70;99.90
44305;DHT22;30019;50.576;8.568;2023-04-06T02:19:38;-1.70;99.90
44305;DHT22;30019;50.576;8.568;2023-04-06T02:22:03;-1.70;99.90
44305;DHT22;30019;50.576;8.568;2023-04-06T02:24:29;-1.70;99.90
44305;DHT22;30019;50.576;8.568;2023-04-06T02:26:54;-1.80;99.90
44305;DHT22;30019;50.576;8.568;2023-04-06T02:29:20;-1.80;99.90
44305;DHT22;30019;50.576;8.568;2023-04-06T02:31:46;-1.80;99.90
44305;DHT22;30019;50.576;8.568;2023-04-06T02:34:12;-1.90;99.90
44305;DHT22;30019;50.576;8.568;2023-04-06T02:36:43;-1.90;99.90
44305;DHT22;30019;50.576;8.568;2023-04-06T02:39:09;-1.90;99.90
44305;DHT22;30019;50.576;8.568;2023-04-06T02:41:35;-1.90;99.90
44305;DHT22;30019;50.576;8.568;2023-04-06T02:44:01;-1.90;99.90
44305;DHT22;30019;50.576;8.568;2023-04-06T02:46:26;-2.00;99.90
44305;DHT22;30019;50.576;8.568;2023-04-06T02:48:52;-2.00;99.90
44305;DHT22;30019;50.576;8.568;2023-04-06T02:51:18;-2.00;99.90
44305;DHT22;30019;50.576;8.568;2023-04-06T02:53:43;-2.00;99.90
44305;DHT22;30019;50.576;8.568;2023-04-06T02:56:09;-2.10;99.90
44305;DHT22;30019;50.576;8.568;2023-04-06T02:58:34;-2.00;99.90
44305;DHT22;30019;50.576;8.568;2023-04-06T03:01:00;-2.00;99.90
44305;DHT22;30019;50.576;8.568;2023-04-06T03:03:25;-2.00;99.90
44305;DHT22;30019;50.576;8.568;2023-04-06T03:05:51;-2.00;99.90
44305;DHT22;30019;50.576;8.568;2023-04-06T03:08:17;-2.00;99.90
44305;DHT22;30019;50.576;8.568;2023-04-06T03:10:42;-2.10;99.90
44305;DHT22;30019;50.576;8.568;2023-04-06T03:13:08;-2.10;99.90
44305;DHT22;30019;50.576;8.568;2023-04-06T03:15:33;-2.20;99.90
44305;DHT22;30019;50.576;8.568;2023-04-06T03:17:59;-2.30;99.90
44305;DHT22;30019;50.576;8.568;2023-04-06T03:20:25;-2.30;99.90
44305;DHT22;30019;50.576;8.568;2023-04-06T03:22:50;-2.30;99.90
44305;DHT22;30019;50.576;8.568;2023-04-06T03:25:16;-2.30;99.90
44305;DHT22;30019;50.576;8.568;2023-04-06T03:27:41;-2.30;99.90
44305;DHT22;30019;50.576;8.568;2023-04-06T03:30:07;-2.20;99.90
44305;DHT22;30019;50.576;8.568;2023-04-06T03:32:33;-2.30;99.90
44305;DHT22;30019;50.576;8.568;2023-04-06T03:34:58;-2.30;99.90
44305;DHT22;30019;50.576;8.568;2023-04-06T03:37:24;-2.20;99.90
44305;DHT22;30019;50.576;8.568;2023-04-06T03:39:49;-2.20;99.90
44305;DHT22;30019;50.576;8.568;2023-04-06T03:42:15;-2.20;99.90
44305;DHT22;30019;50.576;8.568;2023-04-06T03:44:41;-2.20;99.90
44305;DHT22;30019;50.576;8.568;2023-04-06T03:47:06;-2.30;99.90
44305;DHT22;30019;50.576;8.568;2023-04-06T03:49:32;-2.30;99.90
44305;DHT22;30019;50.576;8.568;2023-04-06T03:51:57;-2.30;99.90
44305;DHT22;30019;50.576;8.568;2023-04-06T03:54:23;-2.30;99.90
44305;DHT22;30019;50.576;8.568;2023-04-06T03:56:49;-2.30;99.90
44305;DHT22;30019;50.576;8.568;2023-04-06T03:59:17;-2.30;99.90
44305;DHT22;30019;50.576;8.568;2023-04-06T04:01:43;-2.30;99.90
44305;DHT22;30019;50.576;8.568;2023-04-06T04:04:10;-2.30;99.90
44305;DHT22;30019;50.576;8.568;2023-04-06T04:06:35;-2.30;99.90
44305;DHT22;30019;50.576;8.568;2023-04-06T04:09:02;-2.30;99.90
44305;DHT22;30019;50.576;8.568;2023-04-06T04:11:27;-2.30;99.90
44305;DHT22;30019;50.576;8.568;2023-04-06T04:13:53;-2.30;99.90
44305;DHT22;30019;50.576;8.568;2023-04-06T04:16:19;-2.30;99.90
44305;DHT22;30019;50.576;8.568;2023-04-06T04:18:44;-2.30;99.90
44305;DHT22;30019;50.576;8.568;2023-04-06T04:21:12;-2.30;99.90
44305;DHT22;30019;50.576;8.568;2023-04-06T04:23:38;-2.40;99.90
44305;DHT22;30019;50.576;8.568;2023-04-06T04:26:03;-2.40;99.90
44305;DHT22;30019;50.576;8.568;2023-04-06T04:28:29;-2.50;99.90
44305;DHT22;30019;50.576;8.568;2023-04-06T04:30:55;-2.50;99.90
44305;DHT22;30019;50.576;8.568;2023-04-06T04:33:21;-2.60;99.90
44305;DHT22;30019;50.576;8.568;2023-04-06T04:35:47;-2.60;99.90
44305;DHT22;30019;50.576;8.568;2023-04-06T04:38:13;-2.60;99.90
44305;DHT22;30019;50.576;8.568;2023-04-06T04:40:39;-2.60;99.90
44305;DHT22;30019;50.576;8.568;2023-04-06T04:43:04;-2.60;99.90
44305;DHT22;30019;50.576;8.568;2023-04-06T04:45:30;-2.60;99.90
44305;DHT22;30019;50.576;8.568;2023-04-06T04:47:56;-2.60;99.90
44305;DHT22;30019;50.576;8.568;2023-04-06T04:50:22;-2.60;99.90
44305;DHT22;30019;50.576;8.568;2023-04-06T04:52:48;-2.50;99.90
44305;DHT22;30019;50.576;8.568;2023-04-06T04:55:14;-2.50;99.90
44305;DHT22;30019;50.576;8.568;2023-04-06T04:57:40;-2.50;99.90
44305;DHT22;30019;50.576;8.568;2023-04-06T05:00:06;-2.50;99.90
44305;DHT22;30019;50.576;8.568;2023-04-06T05:02:32;-2.50;99.90
44305;DHT22;30019;50.576;8.568;2023-04-06T05:04:58;-2.50;99.90
44305;DHT22;30019;50.576;8.568;2023-04-06T05:07:23;-2.50;99.90
44305;DHT22;30019;50.576;8.568;2023-04-06T05:09:49;-2.50;99.90
44305;DHT22;30019;50.576;8.568;2023-04-06T05:12:15;-2.40;99.90
44305;DHT22;30019;50.576;8.568;2023-04-06T05:14:41;-2.40;99.90
44305;DHT22;30019;50.576;8.568;2023-04-06T05:17:07;-2.30;99.90
44305;DHT22;30019;50.576;8.568;2023-04-06T05:19:32;-2.30;99.90
44305;DHT22;30019;50.576;8.568;2023-04-06T05:21:58;-2.30;99.90
44305;DHT22;30019;50.576;8.568;2023-04-06T05:24:24;-2.30;99.90
44305;DHT22;30019;50.576;8.568;2023-04-06T05:26:50;-2.20;99.90
44305;DHT22;30019;50.576;8.568;2023-04-06T05:29:16;-2.20;99.90
44305;DHT22;30019;50.576;8.568;2023-04-06T05:31:42;-2.00;99.90
44305;DHT22;30019;50.576;8.568;2023-04-06T05:34:08;-1.90;99.90
44305;DHT22;30019;50.576;8.568;2023-04-06T05:36:34;-1.90;99.90
44305;DHT22;30019;50.576;8.568;2023-04-06T05:39:00;-1.90;99.90
44305;DHT22;30019;50.576;8.568;2023-04-06T05:41:26;-1.80;99.90
44305;DHT22;30019;50.576;8.568;2023-04-06T05:43:51;-1.80;99.90
44305;DHT22;30019;50.576;8.568;2023-04-06T05:46:17;-1.70;99.90
44305;DHT22;30019;50.576;8.568;2023-04-06T05:48:43;-1.70;99.90
44305;DHT22;30019;50.576;8.568;2023-04-06T05:51:09;-1.60;99.90
44305;DHT22;30019;50.576;8.568;2023-04-06T05:53:34;-1.60;99.90
44305;DHT22;30019;50.576;8.568;2023-04-06T05:56:03;-1.60;99.90
44305;DHT22;30019;50.576;8.568;2023-04-06T05:58:29;-1.50;99.90
44305;DHT22;30019;50.576;8.568;2023-04-06T06:00:59;-1.40;99.90
44305;DHT22;30019;50.576;8.568;2023-04-06T06:03:24;-1.30;99.90
44305;DHT22;30019;50.576;8.568;2023-04-06T06:05:50;-1.20;99.90
44305;DHT22;30019;50.576;8.568;2023-04-06T06:08:16;-1.20;99.90
44305;DHT22;30019;50.576;8.568;2023-04-06T06:10:41;-1.20;99.90
44305;DHT22;30019;50.576;8.568;2023-04-06T06:13:07;-1.10;99.90
44305;DHT22;30019;50.576;8.568;2023-04-06T06:15:33;-1.00;99.90
44305;DHT22;30019;50.576;8.568;2023-04-06T06:17:58;-1.00;99.90
44305;DHT22;30019;50.576;8.568;2023-04-06T06:20:24;-0.90;99.90
44305;DHT22;30019;50.576;8.568;2023-04-06T06:22:50;-0.90;99.90
44305;DHT22;30019;50.576;8.568;2023-04-06T06:25:16;-0.80;99.90
44305;DHT22;30019;50.576;8.568;2023-04-06T06:27:41;-0.80;99.90
44305;DHT22;30019;50.576;8.568;2023-04-06T06:30:08;-0.70;99.90
44305;DHT22;30019;50.576;8.568;2023-04-06T06:32:33;-0.60;99.90
44305;DHT22;30019;50.576;8.568;2023-04-06T06:34:59;-0.40;99.90
44305;DHT22;30019;50.576;8.568;2023-04-06T06:37:24;-0.30;99.90
44305;DHT22;30019;50.576;8.568;2023-04-06T06:39:50;-0.30;99.90
44305;DHT22;30019;50.576;8.568;2023-04-06T06:42:15;-0.10;99.90
44305;DHT22;30019;50.576;8.568;2023-04-06T06:44:41;0.00;99.90
44305;DHT22;30019;50.576;8.568;2023-04-06T06:47:07;0.10;99.90
44305;DHT22;30019;50.576;8.568;2023-04-06T06:49:32;0.30;99.90
44305;DHT22;30019;50.576;8.568;2023-04-06T06:51:58;0.50;99.90
44305;DHT22;30019;50.576;8.568;2023-04-06T06:54:23;0.70;99.90
44305;DHT22;30019;50.576;8.568;2023-04-06T06:56:49;0.90;99.90
44305;DHT22;30019;50.576;8.568;2023-04-06T06:59:14;1.20;99.90
44305;DHT22;30019;50.576;8.568;2023-04-06T07:01:41;1.40;99.90
44305;DHT22;30019;50.576;8.568;2023-04-06T07:04:07;1.50;99.90
44305;DHT22;30019;50.576;8.568;2023-04-06T07:06:35;1.50;99.90
44305;DHT22;30019;50.576;8.568;2023-04-06T07:09:01;1.40;99.90
44305;DHT22;30019;50.576;8.568;2023-04-06T07:11:29;1.40;99.90
44305;DHT22;30019;50.576;8.568;2023-04-06T07:13:54;1.50;99.90
44305;DHT22;30019;50.576;8.568;2023-04-06T07:16:20;1.50;99.90
44305;DHT22;30019;50.576;8.568;2023-04-06T07:18:46;1.70;99.90
44305;DHT22;30019;50.576;8.568;2023-04-06T07:21:11;2.20;99.90
44305;DHT22;30019;50.576;8.568;2023-04-06T07:23:37;2.80;99.90
44305;DHT22;30019;50.576;8.568;2023-04-06T07:26:03;3.10;99.90
44305;DHT22;30019;50.576;8.568;2023-04-06T07:28:28;3.30;99.90
44305;DHT22;30019;50.576;8.568;2023-04-06T07:30:54;3.90;99.90
44305;DHT22;30019;50.576;8.568;2023-04-06T07:33:20;4.10;99.90
44305;DHT22;30019;50.576;8.568;2023-04-06T07:35:45;4.20;99.90
44305;DHT22;30019;50.576;8.568;2023-04-06T07:38:11;4.20;99.90
44305;DHT22;30019;50.576;8.568;2023-04-06T07:40:37;4.30;99.90
44305;DHT22;30019;50.576;8.568;2023-04-06T07:43:03;4.50;99.90
44305;DHT22;30019;50.576;8.568;2023-04-06T07:45:29;4.60;99.90
44305;DHT22;30019;50.576;8.568;2023-04-06T07:47:54;4.70;99.90
44305;DHT22;30019;50.576;8.568;2023-04-06T07:50:20;5.20;99.90
44305;DHT22;30019;50.576;8.568;2023-04-06T07:52:46;5.80;99.90
44305;DHT22;30019;50.576;8.568;2023-04-06T07:55:11;6.60;99.90
44305;DHT22;30019;50.576;8.568;2023-04-06T07:57:37;6.80;99.90
44305;DHT22;30019;50.576;8.568;2023-04-06T08:00:03;7.10;99.90
44305;DHT22;30019;50.576;8.568;2023-04-06T08:02:31;6.90;99.90
44305;DHT22;30019;50.576;8.568;2023-04-06T08:04:56;6.70;99.90
44305;DHT22;30019;50.576;8.568;2023-04-06T08:07:22;7.00;99.90
44305;DHT22;30019;50.576;8.568;2023-04-06T08:09:47;7.00;99.90
44305;DHT22;30019;50.576;8.568;2023-04-06T08:12:13;7.30;99.90
44305;DHT22;30019;50.576;8.568;2023-04-06T08:14:39;7.80;99.90
44305;DHT22;30019;50.576;8.568;2023-04-06T08:17:05;8.30;99.90
44305;DHT22;30019;50.576;8.568;2023-04-06T08:19:30;8.40;99.90
44305;DHT22;30019;50.576;8.568;2023-04-06T08:21:56;8.30;99.90
44305;DHT22;30019;50.576;8.568;2023-04-06T08:24:21;9.10;99.90
44305;DHT22;30019;50.576;8.568;2023-04-06T08:26:47;9.20;99.60
44305;DHT22;30019;50.576;8.568;2023-04-06T08:29:12;9.10;98.60
44305;DHT22;30019;50.576;8.568;2023-04-06T08:31:38;8.80;98.30
44305;DHT22;30019;50.576;8.568;2023-04-06T08:34:04;8.20;99.90
44305;DHT22;30019;50.576;8.568;2023-04-06T08:36:31;8.00;99.90
44305;DHT22;30019;50.576;8.568;2023-04-06T08:38:57;7.50;99.90
44305;DHT22;30019;50.576;8.568;2023-04-06T08:41:22;7.10;99.90
44305;DHT22;30019;50.576;8.568;2023-04-06T08:44:01;6.60;99.90
44305;DHT22;30019;50.576;8.568;2023-04-06T08:46:28;6.50;99.90
44305;DHT22;30019;50.576;8.568;2023-04-06T08:48:58;6.50;99.90
44305;DHT22;30019;50.576;8.568;2023-04-06T08:51:25;6.50;99.90
44305;DHT22;30019;50.576;8.568;2023-04-06T08:53:53;6.60;99.90
44305;DHT22;30019;50.576;8.568;2023-04-06T08:56:22;6.70;99.90
44305;DHT22;30019;50.576;8.568;2023-04-06T08:58:48;7.10;99.90
44305;DHT22;30019;50.576;8.568;2023-04-06T09:01:14;7.70;99.90
44305;DHT22;30019;50.576;8.568;2023-04-06T09:03:42;8.30;99.90
44305;DHT22;30019;50.576;8.568;2023-04-06T09:06:09;8.20;99.90
44305;DHT22;30019;50.576;8.568;2023-04-06T09:08:35;8.30;99.90
44305;DHT22;30019;50.576;8.568;2023-04-06T09:11:02;8.50;99.90
44305;DHT22;30019;50.576;8.568;2023-04-06T09:13:28;8.80;99.90
44305;DHT22;30019;50.576;8.568;2023-04-06T09:16:05;8.90;99.90
44305;DHT22;30019;50.576;8.568;2023-04-06T09:18:33;9.00;99.90
44305;DHT22;30019;50.576;8.568;2023-04-06T09:21:02;9.10;99.60
44305;DHT22;30019;50.576;8.568;2023-04-06T09:23:27;9.20;99.20
44305;DHT22;30019;50.576;8.568;2023-04-06T09:28:47;10.00;98.70
44305;DHT22;30019;50.576;8.568;2023-04-06T09:31:15;10.20;98.10
44305;DHT22;30019;50.576;8.568;2023-04-06T09:33:44;10.20;99.00
44305;DHT22;30019;50.576;8.568;2023-04-06T09:36:10;10.40;97.30
44305;DHT22;30019;50.576;8.568;2023-04-06T09:38:37;10.00;97.40
44305;DHT22;30019;50.576;8.568;2023-04-06T09:41:03;10.00;97.60
44305;DHT22;30019;50.576;8.568;2023-04-06T09:43:29;10.10;97.90
44305;DHT22;30019;50.576;8.568;2023-04-06T09:45:57;10.50;97.90
44305;DHT22;30019;50.576;8.568;2023-04-06T09:48:26;10.50;97.30
44305;DHT22;30019;50.576;8.568;2023-04-06T09:50:55;10.50;98.50
44305;DHT22;30019;50.576;8.568;2023-04-06T09:53:23;10.50;96.60
44305;DHT22;30019;50.576;8.568;2023-04-06T09:55:50;11.10;96.60
44305;DHT22;30019;50.576;8.568;2023-04-06T09:58:17;11.80;95.70
44305;DHT22;30019;50.576;8.568;2023-04-06T10:00:47;12.10;94.60
44305;DHT22;30019;50.576;8.568;2023-04-06T10:03:14;12.70;93.50
44305;DHT22;30019;50.576;8.568;2023-04-06T10:08:14;13.20;93.90
44305;DHT22;30019;50.576;8.568;2023-04-06T10:10:40;14.10;91.50
44305;DHT22;30019;50.576;8.568;2023-04-06T10:13:07;13.90;88.50
44305;DHT22;30019;50.576;8.568;2023-04-06T10:15:33;13.70;90.90
44305;DHT22;30019;50.576;8.568;2023-04-06T10:17:59;13.80;92.20
44305;DHT22;30019;50.576;8.568;2023-04-06T10:20:29;14.10;90.70
44305;DHT22;30019;50.576;8.568;2023-04-06T10:23:18;14.30;85.70
44305;DHT22;30019;50.576;8.568;2023-04-06T10:25:52;14.60;88.60
44305;DHT22;30019;50.576;8.568;2023-04-06T10:28:18;15.10;85.60
44305;DHT22;30019;50.576;8.568;2023-04-06T10:30:44;15.90;82.10
44305;DHT22;30019;50.576;8.568;2023-04-06T10:33:18;16.50;77.90
44305;DHT22;30019;50.576;8.568;2023-04-06T10:35:44;16.30;80.20
44305;DHT22;30019;50.576;8.568;2023-04-06T10:38:09;16.70;81.50
44305;DHT22;30019;50.576;8.568;2023-04-06T10:40:37;16.70;79.30
44305;DHT22;30019;50.576;8.568;2023-04-06T10:43:08;16.70;78.30
44305;DHT22;30019;50.576;8.568;2023-04-06T10:45:34;17.10;75.70
44305;DHT22;30019;50.576;8.568;2023-04-06T10:47:59;17.10;81.00
44305;DHT22;30019;50.576;8.568;2023-04-06T10:50:25;17.50;72.90
44305;DHT22;30019;50.576;8.568;2023-04-06T10:53:01;16.70;73.10
44305;DHT22;30019;50.576;8.568;2023-04-06T10:55:30;16.40;76.90
44305;DHT22;30019;50.576;8.568;2023-04-06T10:57:56;16.80;75.40
44305;DHT22;30019;50.576;8.568;2023-04-06T11:00:22;16.90;73.20
44305;DHT22;30019;50.576;8.568;2023-04-06T11:02:47;17.20;73.90
44305;DHT22;30019;50.576;8.568;2023-04-06T11:05:14;16.90;71.90
44305;DHT22;30019;50.576;8.568;2023-04-06T11:07:40;16.00;74.70
44305;DHT22;30019;50.576;8.568;2023-04-06T11:10:06;16.00;75.30
44305;DHT22;30019;50.576;8.568;2023-04-06T11:12:32;15.80;74.40
44305;DHT22;30019;50.576;8.568;2023-04-06T11:17:29;15.60;76.30
44305;DHT22;30019;50.576;8.568;2023-04-06T11:19:55;16.30;74.00
44305;DHT22;30019;50.576;8.568;2023-04-06T11:22:21;16.80;75.90
44305;DHT22;30019;50.576;8.568;2023-04-06T11:24:46;16.60;72.00
44305;DHT22;30019;50.576;8.568;2023-04-06T11:27:12;16.20;70.90
44305;DHT22;30019;50.576;8.568;2023-04-06T11:29:40;16.00;73.30
44305;DHT22;30019;50.576;8.568;2023-04-06T11:32:06;15.70;75.20
44305;DHT22;30019;50.576;8.568;2023-04-06T11:34:33;15.50;72.90
44305;DHT22;30019;50.576;8.568;2023-04-06T11:37:01;15.90;76.10
44305;DHT22;30019;50.576;8.568;2023-04-06T11:39:28;16.70;76.00
44305;DHT22;30019;50.576;8.568;2023-04-06T11:41:55;16.70;72.80
44305;DHT22;30019;50.576;8.568;2023-04-06T11:44:35;17.00;71.50
44305;DHT22;30019;50.576;8.568;2023-04-06T11:47:01;16.20;73.90
44305;DHT22;30019;50.576;8.568;2023-04-06T11:49:30;15.20;72.10
44305;DHT22;30019;50.576;8.568;2023-04-06T11:51:56;14.50;75.60
44305;DHT22;30019;50.576;8.568;2023-04-06T11:54:35;14.00;78.40
44305;DHT22;30019;50.576;8.568;2023-04-06T11:57:01;13.90;77.00
44305;DHT22;30019;50.576;8.568;2023-04-06T11:59:27;13.90;77.30
44305;DHT22;30019;50.576;8.568;2023-04-06T12:01:53;14.10;80.60
44305;DHT22;30019;50.576;8.568;2023-04-06T12:04:18;14.50;77.00
44305;DHT22;30019;50.576;8.568;2023-04-06T12:06:44;14.90;79.60
44305;DHT22;30019;50.576;8.568;2023-04-06T12:09:09;14.50;75.60
44305;DHT22;30019;50.576;8.568;2023-04-06T12:11:35;14.00;75.80
44305;DHT22;30019;50.576;8.568;2023-04-06T12:14:00;13.20;76.60
44305;DHT22;30019;50.576;8.568;2023-04-06T12:16:27;13.30;76.60
44305;DHT22;30019;50.576;8.568;2023-04-06T12:18:52;13.90;74.20
44305;DHT22;30019;50.576;8.568;2023-04-06T12:21:17;14.30;74.40
44305;DHT22;30019;50.576;8.568;2023-04-06T12:23:43;14.30;73.00
44305;DHT22;30019;50.576;8.568;2023-04-06T12:26:08;14.30;71.80
44305;DHT22;30019;50.576;8.568;2023-04-06T12:28:34;14.80;75.60
44305;DHT22;30019;50.576;8.568;2023-04-06T12:30:59;14.90;72.90
44305;DHT22;30019;50.576;8.568;2023-04-06T12:33:25;14.70;71.00
44305;DHT22;30019;50.576;8.568;2023-04-06T12:35:50;14.60;72.60
44305;DHT22;30019;50.576;8.568;2023-04-06T12:38:16;15.00;71.10
44305;DHT22;30019;50.576;8.568;2023-04-06T12:40:42;15.20;69.60
44305;DHT22;30019;50.576;8.568;2023-04-06T12:43:07;15.50;72.30
44305;DHT22;30019;50.576;8.568;2023-04-06T12:45:34;15.20;67.60
44305;DHT22;30019;50.576;8.568;2023-04-06T12:47:59;15.50;69.20
44305;DHT22;30019;50.576;8.568;2023-04-06T12:50:25;16.30;67.60
44305;DHT22;30019;50.576;8.568;2023-04-06T12:52:51;17.00;67.00
44305;DHT22;30019;50.576;8.568;2023-04-06T12:55:17;16.70;64.10
44305;DHT22;30019;50.576;8.568;2023-04-06T12:57:42;16.90;67.80
44305;DHT22;30019;50.576;8.568;2023-04-06T13:00:08;16.50;67.20
44305;DHT22;30019;50.576;8.568;2023-04-06T13:02:33;15.80;64.60
44305;DHT22;30019;50.576;8.568;2023-04-06T13:04:59;15.60;64.10
44305;DHT22;30019;50.576;8.568;2023-04-06T13:07:25;15.20;66.50
44305;DHT22;30019;50.576;8.568;2023-04-06T13:09:51;15.00;66.70
44305;DHT22;30019;50.576;8.568;2023-04-06T13:12:16;14.80;67.40
44305;DHT22;30019;50.576;8.568;2023-04-06T13:14:42;14.50;68.90
44305;DHT22;30019;50.576;8.568;2023-04-06T13:17:08;14.10;68.00
44305;DHT22;30019;50.576;8.568;2023-04-06T13:19:33;14.40;70.00
44305;DHT22;30019;50.576;8.568;2023-04-06T13:21:59;14.30;70.30
44305;DHT22;30019;50.576;8.568;2023-04-06T13:24:24;14.50;73.40
44305;DHT22;30019;50.576;8.568;2023-04-06T13:26:50;14.30;67.60
44305;DHT22;30019;50.576;8.568;2023-04-06T13:29:15;14.10;69.00
44305;DHT22;30019;50.576;8.568;2023-04-06T13:31:41;13.90;73.30
44305;DHT22;30019;50.576;8.568;2023-04-06T13:34:06;14.00;69.50
44305;DHT22;30019;50.576;8.568;2023-04-06T13:36:32;14.10;74.20
44305;DHT22;30019;50.576;8.568;2023-04-06T13:38:58;14.00;69.70
44305;DHT22;30019;50.576;8.568;2023-04-06T13:41:24;14.00;69.40
44305;DHT22;30019;50.576;8.568;2023-04-06T13:43:50;14.40;69.50
44305;DHT22;30019;50.576;8.568;2023-04-06T13:46:16;14.60;70.70
44305;DHT22;30019;50.576;8.568;2023-04-06T13:48:42;14.60;73.20
44305;DHT22;30019;50.576;8.568;2023-04-06T13:51:11;14.90;70.30
44305;DHT22;30019;50.576;8.568;2023-04-06T13:53:37;15.00;70.90
44305;DHT22;30019;50.576;8.568;2023-04-06T13:56:03;15.40;70.90
44305;DHT22;30019;50.576;8.568;2023-04-06T13:58:28;15.30;69.80
44305;DHT22;30019;50.576;8.568;2023-04-06T14:00:54;15.00;69.90
44305;DHT22;30019;50.576;8.568;2023-04-06T14:03:22;15.20;69.20
44305;DHT22;30019;50.576;8.568;2023-04-06T14:05:47;15.80;71.90
44305;DHT22;30019;50.576;8.568;2023-04-06T14:08:12;15.50;66.00
44305;DHT22;30019;50.576;8.568;2023-04-06T14:10:39;15.20;68.20
44305;DHT22;30019;50.576;8.568;2023-04-06T14:13:05;14.80;68.70
44305;DHT22;30019;50.576;8.568;2023-04-06T14:15:31;14.70;71.50
44305;DHT22;30019;50.576;8.568;2023-04-06T14:17:56;14.40;70.00
44305;DHT22;30019;50.576;8.568;2023-04-06T14:20:22;14.50;71.40
44305;DHT22;30019;50.576;8.568;2023-04-06T14:22:48;14.50;71.50
44305;DHT22;30019;50.576;8.568;2023-04-06T14:25:14;14.40;73.20
44305;DHT22;30019;50.576;8.568;2023-04-06T14:27:41;14.10;72.60
44305;DHT22;30019;50.576;8.568;2023-04-06T14:30:07;14.20;75.20
44305;DHT22;30019;50.576;8.568;2023-04-06T14:32:33;14.60;76.70
44305;DHT22;30019;50.576;8.568;2023-04-06T14:34:59;14.60;71.70
44305;DHT22;30019;50.576;8.568;2023-04-06T14:37:24;14.60;74.40
44305;DHT22;30019;50.576;8.568;2023-04-06T14:39:50;14.40;74.70
44305;DHT22;30019;50.576;8.568;2023-04-06T14:42:15;14.10;75.60
44305;DHT22;30019;50.576;8.568;2023-04-06T14:44:41;14.00;78.50
44305;DHT22;30019;50.576;8.568;2023-04-06T14:47:09;14.10;76.90
44305;DHT22;30019;50.576;8.568;2023-04-06T14:49:35;14.00;77.00
44305;DHT22;30019;50.576;8.568;2023-04-06T14:52:00;14.00;78.30
44305;DHT22;30019;50.576;8.568;2023-04-06T14:54:26;14.20;76.30
44305;DHT22;30019;50.576;8.568;2023-04-06T14:56:51;14.00;74.90
44305;DHT22;30019;50.576;8.568;2023-04-06T14:59:17;14.10;75.30
44305;DHT22;30019;50.576;8.568;2023-04-06T15:01:42;14.00;77.10
44305;DHT22;30019;50.576;8.568;2023-04-06T15:04:08;13.70;76.40
44305;DHT22;30019;50.576;8.568;2023-04-06T15:06:33;13.50;77.80
44305;DHT22;30019;50.576;8.568;2023-04-06T15:08:59;13.60;77.90
44305;DHT22;30019;50.576;8.568;2023-04-06T15:11:24;13.60;77.20
44305;DHT22;30019;50.576;8.568;2023-04-06T15:13:51;13.50;77.10
44305;DHT22;30019;50.576;8.568;2023-04-06T15:16:16;13.70;79.00
44305;DHT22;30019;50.576;8.568;2023-04-06T15:18:42;13.70;75.20
44305;DHT22;30019;50.576;8.568;2023-04-06T15:21:07;13.80;76.20
44305;DHT22;30019;50.576;8.568;2023-04-06T15:23:33;13.70;77.60
44305;DHT22;30019;50.576;8.568;2023-04-06T15:25:59;13.60;75.30
44305;DHT22;30019;50.576;8.568;2023-04-06T15:28:25;13.50;78.20
44305;DHT22;30019;50.576;8.568;2023-04-06T15:30:51;13.50;76.80
44305;DHT22;30019;50.576;8.568;2023-04-06T15:33:16;13.40;79.00